createdAt,value
2022-10-23T00:00:49.079Z,92.85
2022-10-23T00:03:20.955Z,92.93
2022-10-23T00:05:52.865Z,92.81
2022-10-23T00:08:24.693Z,93.01
2022-10-23T00:10:56.588Z,92.91
2022-10-23T00:13:28.784Z,92.97
2022-10-23T00:16:00.582Z,92.93
2022-10-23T00:18:32.743Z,93.27
2022-10-23T00:21:05.676Z,93.15
2022-10-23T00:23:37.679Z,93.24
2022-10-23T00:26:15.662Z,93.42
2022-10-23T00:28:50.899Z,93.64
2022-10-23T00:31:24.346Z,93.59
2022-10-23T00:33:56.257Z,93.66
2022-10-23T00:36:28.057Z,93.59
2022-10-23T00:39:00.242Z,93.61
2022-10-23T00:41:32.735Z,93.60
2022-10-23T00:44:11.137Z,93.88
2022-10-23T00:46:42.902Z,93.90
2022-10-23T00:49:15.396Z,93.82
2022-10-23T00:51:50.289Z,94.03
2022-10-23T00:54:25.642Z,93.91
2022-10-23T00:56:59.864Z,93.94
2022-10-23T00:59:32.576Z,93.92
2022-10-23T01:02:05.513Z,93.89
2022-10-23T01:04:37.543Z,93.97
2022-10-23T01:07:25.071Z,94.36
2022-10-23T01:10:33.162Z,94.42
2022-10-23T01:13:12.907Z,94.09
2022-10-23T01:16:00.761Z,94.20
2022-10-23T01:18:38.976Z,94.00
2022-10-23T01:21:29.215Z,94.02
2022-10-23T01:24:19.712Z,94.04
2022-10-23T01:26:59.134Z,93.78
2022-10-23T01:29:41.446Z,93.99
2022-10-23T01:32:15.401Z,94.05
2022-10-23T01:34:52.021Z,94.11
2022-10-23T01:37:41.692Z,94.09
2022-10-23T01:40:27.538Z,93.95
2022-10-23T01:43:05.339Z,93.95
2022-10-23T01:45:45.970Z,93.98
2022-10-23T01:48:27.851Z,93.94
2022-10-23T01:51:03.871Z,93.82
2022-10-23T01:53:41.267Z,93.91
2022-10-23T01:56:27.313Z,93.90
2022-10-23T01:59:03.224Z,93.69
2022-10-23T02:01:42.107Z,93.71
2022-10-23T02:04:19.156Z,93.68
2022-10-23T02:06:51.020Z,93.56
2022-10-23T02:09:23.027Z,93.66
2022-10-23T02:12:29.385Z,94.30
2022-10-23T02:15:25.683Z,94.27
2022-10-23T02:18:05.693Z,93.87
2022-10-23T02:20:47.943Z,93.80
2022-10-23T02:23:36.014Z,93.60
2022-10-23T02:26:31.225Z,93.72
2022-10-23T02:29:09.431Z,93.49
2022-10-23T02:31:43.666Z,93.49
2022-10-23T02:34:15.610Z,93.41
2022-10-23T02:36:47.499Z,93.36
2022-10-23T02:39:22.581Z,93.10
2022-10-23T02:41:54.642Z,92.97
2022-10-23T02:44:44.675Z,93.10
2022-10-23T02:47:25.070Z,92.71
2022-10-23T02:50:08.186Z,92.60
2022-10-23T02:52:50.791Z,92.53
2022-10-23T02:55:41.705Z,92.41
2022-10-23T02:58:19.224Z,92.39
2022-10-23T03:01:06.087Z,92.24
2022-10-23T03:03:41.990Z,92.29
2022-10-23T03:06:13.882Z,92.24
2022-10-23T03:08:52.957Z,92.34
2022-10-23T03:11:24.847Z,92.31
2022-10-23T03:13:56.866Z,92.10
2022-10-23T03:16:28.740Z,92.30
2022-10-23T03:19:00.679Z,91.96
2022-10-23T03:21:32.606Z,91.85
2022-10-23T03:24:04.536Z,91.79
2022-10-23T03:26:42.425Z,91.75
2022-10-23T03:29:15.042Z,91.70
2022-10-23T03:31:50.696Z,91.76
2022-10-23T03:34:23.306Z,91.60
2022-10-23T03:36:57.934Z,91.52
2022-10-23T03:39:29.894Z,91.56
2022-10-23T03:42:02.187Z,91.50
2022-10-23T03:44:35.437Z,91.42
2022-10-23T03:47:10.078Z,91.39
2022-10-23T03:49:41.956Z,91.26
2022-10-23T03:52:13.959Z,91.52
2022-10-23T03:54:45.949Z,91.39
2022-10-23T03:57:17.823Z,91.60
2022-10-23T03:59:50.016Z,91.28
2022-10-23T04:02:22.832Z,91.47
2022-10-23T04:04:57.534Z,91.42
2022-10-23T04:07:29.552Z,91.39
2022-10-23T04:10:05.198Z,91.16
2022-10-23T04:12:38.142Z,91.13
2022-10-23T04:15:11.207Z,91.19
2022-10-23T04:17:45.431Z,90.90
2022-10-23T04:20:18.215Z,90.99
2022-10-23T04:22:50.009Z,91.03
2022-10-23T04:25:22.949Z,90.97
2022-10-23T04:27:55.532Z,90.99
2022-10-23T04:30:27.647Z,91.11
2022-10-23T04:33:00.554Z,91.06
2022-10-23T04:35:34.255Z,91.01
2022-10-23T04:38:06.261Z,90.96
2022-10-23T04:40:38.574Z,91.06
2022-10-23T04:43:10.586Z,91.26
2022-10-23T04:45:44.724Z,91.19
2022-10-23T04:48:16.801Z,91.17
2022-10-23T04:51:18.053Z,91.18
2022-10-23T04:54:04.155Z,91.28
2022-10-23T04:56:47.696Z,91.13
2022-10-23T04:59:22.813Z,91.28
2022-10-23T05:01:55.134Z,91.51
2022-10-23T05:04:28.745Z,91.33
2022-10-23T05:07:36.492Z,91.30
2022-10-23T05:10:18.683Z,91.43
2022-10-23T05:13:00.583Z,91.31
2022-10-23T05:15:33.579Z,91.31
2022-10-23T05:18:13.042Z,91.51
2022-10-23T05:20:45.722Z,91.70
2022-10-23T05:23:19.818Z,91.74
2022-10-23T05:26:03.219Z,91.65
2022-10-23T05:28:36.573Z,91.81
2022-10-23T05:31:09.618Z,91.76
2022-10-23T05:33:44.275Z,91.73
2022-10-23T05:36:16.912Z,91.74
2022-10-23T05:38:49.947Z,91.83
2022-10-23T05:41:23.333Z,91.63
2022-10-23T05:43:55.392Z,91.69
2022-10-23T05:46:47.485Z,91.70
2022-10-23T05:49:50.788Z,91.62
2022-10-23T05:52:25.212Z,91.57
2022-10-23T05:55:10.527Z,91.69
2022-10-23T05:57:53.917Z,91.97
2022-10-23T06:00:37.970Z,91.53
2022-10-23T06:03:29.868Z,91.56
2022-10-23T06:06:02.299Z,91.76
2022-10-23T06:08:45.431Z,91.60
2022-10-23T06:11:18.133Z,91.48
2022-10-23T06:14:00.956Z,91.62
2022-10-23T06:16:34.287Z,91.53
2022-10-23T06:19:06.317Z,91.71
2022-10-23T06:21:39.421Z,91.88
2022-10-23T06:24:11.727Z,91.72
2022-10-23T06:26:55.685Z,91.92
2022-10-23T06:29:39.890Z,91.85
2022-10-23T06:32:11.934Z,91.79
2022-10-23T06:34:45.231Z,91.99
2022-10-23T06:37:18.091Z,92.17
2022-10-23T06:40:16.337Z,92.19
2022-10-23T06:42:59.652Z,92.16
2022-10-23T06:46:02.838Z,92.44
2022-10-23T06:49:03.804Z,92.37
2022-10-23T06:51:39.288Z,92.45
2022-10-23T06:54:15.374Z,92.11
2022-10-23T06:56:56.158Z,92.53
2022-10-23T06:59:36.697Z,92.47
2022-10-23T07:02:09.381Z,92.52
2022-10-23T07:04:41.381Z,92.71
2022-10-23T07:07:19.585Z,92.58
2022-10-23T07:09:53.653Z,92.41
2022-10-23T07:12:30.041Z,92.24
2022-10-23T07:15:21.839Z,92.31
2022-10-23T07:17:53.902Z,92.12
2022-10-23T07:20:27.325Z,91.97
2022-10-23T07:22:59.317Z,92.03
2022-10-23T07:25:35.019Z,91.98
2022-10-23T07:28:07.405Z,91.98
2022-10-23T07:30:40.989Z,91.87
2022-10-23T07:33:13.815Z,91.88
2022-10-23T07:35:53.694Z,91.82
2022-10-23T07:38:31.519Z,91.77
2022-10-23T07:41:03.710Z,91.73
2022-10-23T07:43:37.008Z,91.94
2022-10-23T07:46:09.953Z,91.71
2022-10-23T07:48:45.263Z,91.73
2022-10-23T07:51:17.702Z,91.46
2022-10-23T07:53:52.395Z,91.33
2022-10-23T07:56:40.169Z,91.31
2022-10-23T07:59:20.443Z,91.38
2022-10-23T08:01:58.278Z,91.12
2022-10-23T08:04:36.754Z,91.12
2022-10-23T08:07:28.353Z,90.91
2022-10-23T08:10:03.010Z,90.88
2022-10-23T08:12:37.552Z,90.74
2022-10-23T08:15:10.372Z,90.67
2022-10-23T08:17:57.249Z,90.60
2022-10-23T08:20:43.981Z,90.47
2022-10-23T08:23:18.405Z,90.09
2022-10-23T08:25:57.187Z,90.12
2022-10-23T08:28:29.233Z,90.07
2022-10-23T08:31:11.549Z,89.87
2022-10-23T08:33:44.583Z,89.73
2022-10-23T08:36:22.734Z,89.23
2022-10-23T08:38:56.328Z,89.10
2022-10-23T08:41:31.823Z,88.67
2022-10-23T08:44:36.814Z,88.05
2022-10-23T08:47:13.408Z,88.20
2022-10-23T08:49:49.875Z,88.00
2022-10-23T08:52:32.287Z,88.24
2022-10-23T08:55:16.812Z,87.76
2022-10-23T08:58:06.090Z,87.23
2022-10-23T09:00:38.049Z,87.69
2022-10-23T09:03:12.261Z,87.28
2022-10-23T09:06:07.530Z,86.63
2022-10-23T09:09:02.305Z,86.17
2022-10-23T09:11:49.391Z,86.56
2022-10-23T09:14:21.808Z,86.58
2022-10-23T09:16:57.305Z,86.53
2022-10-23T09:19:31.260Z,86.61
2022-10-23T09:22:03.209Z,86.44
2022-10-23T09:24:36.418Z,86.63
2022-10-23T09:27:16.898Z,86.39
2022-10-23T09:29:51.665Z,86.64
2022-10-23T09:32:34.594Z,86.62
2022-10-23T09:35:07.048Z,86.68
2022-10-23T09:37:46.175Z,86.50
2022-10-23T09:40:40.973Z,86.31
2022-10-23T09:43:17.654Z,86.12
2022-10-23T09:45:59.568Z,86.16
2022-10-23T09:48:31.942Z,85.94
2022-10-23T09:51:24.251Z,85.88
2022-10-23T09:53:59.790Z,85.96
2022-10-23T09:56:39.474Z,86.27
2022-10-23T09:59:11.281Z,86.17
2022-10-23T10:01:50.379Z,85.91
2022-10-23T10:04:58.329Z,86.02
2022-10-23T10:07:33.339Z,85.93
2022-10-23T10:10:15.111Z,85.67
2022-10-23T10:12:55.588Z,85.56
2022-10-23T10:15:36.487Z,85.35
2022-10-23T10:18:15.921Z,84.97
2022-10-23T10:20:53.830Z,84.94
2022-10-23T10:23:44.218Z,84.70
2022-10-23T10:26:44.464Z,84.42
2022-10-23T10:29:42.181Z,84.54
2022-10-23T10:32:32.535Z,84.64
2022-10-23T10:35:13.216Z,84.24
2022-10-23T10:38:03.622Z,84.41
2022-10-23T10:40:40.158Z,84.11
2022-10-23T10:43:27.599Z,83.93
2022-10-23T10:46:17.593Z,83.31
2022-10-23T10:48:53.005Z,83.89
2022-10-23T10:52:17.866Z,83.40
2022-10-23T10:55:13.672Z,83.06
2022-10-23T10:57:48.727Z,83.22
2022-10-23T11:00:22.581Z,83.11
2022-10-23T11:03:37.452Z,82.75
2022-10-23T11:06:21.050Z,83.00
2022-10-23T11:08:58.101Z,83.29
2022-10-23T11:11:38.321Z,83.08
2022-10-23T11:14:18.642Z,82.59
2022-10-23T11:16:59.905Z,82.42
2022-10-23T11:20:02.934Z,82.08
2022-10-23T11:22:44.109Z,81.96
2022-10-23T11:25:50.459Z,80.88
2022-10-23T11:28:50.444Z,80.20
2022-10-23T11:31:34.168Z,79.84
2022-10-23T11:34:44.904Z,77.73
2022-10-23T11:37:21.441Z,77.97
2022-10-23T11:40:08.222Z,75.55
2022-10-23T11:42:39.989Z,77.28
2022-10-23T11:45:31.565Z,74.03
2022-10-23T11:48:23.653Z,73.39
2022-10-23T11:50:56.480Z,75.62
2022-10-23T11:53:32.794Z,74.63
2022-10-23T11:56:12.498Z,74.62
2022-10-23T11:58:49.587Z,73.81
2022-10-23T12:01:31.427Z,73.44
2022-10-23T12:06:52.745Z,73.04
2022-10-23T12:10:20.509Z,70.29
2022-10-23T12:13:00.281Z,70.43
2022-10-23T12:15:34.874Z,71.44
2022-10-23T12:18:15.104Z,69.19
2022-10-23T12:21:13.555Z,65.80
2022-10-23T12:24:12.754Z,64.57
2022-10-23T12:26:59.662Z,65.68
2022-10-23T12:29:59.471Z,65.48
2022-10-23T12:32:37.198Z,67.34
2022-10-23T12:35:18.315Z,67.18
2022-10-23T12:38:10.266Z,67.89
2022-10-23T12:40:53.561Z,68.45
2022-10-23T12:43:25.491Z,69.49
2022-10-23T12:46:05.682Z,69.63
2022-10-23T12:48:48.040Z,69.87
2022-10-23T12:51:31.109Z,70.60
2022-10-23T12:54:03.849Z,71.45
2022-10-23T12:56:36.938Z,72.19
2022-10-23T12:59:17.494Z,72.46
2022-10-23T13:01:52.765Z,72.76
2022-10-23T13:04:30.688Z,73.03
2022-10-23T13:07:03.893Z,73.43
2022-10-23T13:09:41.442Z,73.63
2022-10-23T13:12:24.354Z,74.51
2022-10-23T13:15:12.429Z,74.62
2022-10-23T13:17:45.668Z,74.60
2022-10-23T13:20:17.797Z,74.86
2022-10-23T13:22:59.451Z,75.65
2022-10-23T13:25:34.977Z,75.45
2022-10-23T13:28:21.375Z,76.23
2022-10-23T13:31:12.327Z,76.51
2022-10-23T13:33:46.276Z,76.28
2022-10-23T13:36:18.709Z,76.28
2022-10-23T13:39:02.358Z,76.74
2022-10-23T13:41:41.131Z,76.91
2022-10-23T13:44:15.539Z,76.73
2022-10-23T13:46:48.463Z,76.80
2022-10-23T13:49:20.522Z,76.79
2022-10-23T13:51:55.570Z,76.81
2022-10-23T13:54:29.099Z,77.03
2022-10-23T13:57:01.243Z,77.34
2022-10-23T13:59:33.258Z,77.26
2022-10-23T14:02:17.764Z,77.72
2022-10-23T14:04:50.837Z,77.47
2022-10-23T14:07:22.675Z,77.45
2022-10-23T14:09:54.698Z,77.60
2022-10-23T14:12:26.502Z,77.97
2022-10-23T14:14:58.440Z,77.83
2022-10-23T14:17:30.325Z,77.87
2022-10-23T14:20:04.131Z,77.98
2022-10-23T14:22:38.011Z,78.34
2022-10-23T14:25:09.983Z,78.33
2022-10-23T14:27:41.903Z,78.46
2022-10-23T14:30:14.216Z,78.51
2022-10-23T14:32:46.493Z,78.62
2022-10-23T14:35:18.857Z,78.72
2022-10-23T14:37:50.753Z,79.02
2022-10-23T14:40:22.729Z,78.97
2022-10-23T14:42:54.633Z,79.07
2022-10-23T14:45:26.637Z,79.13
2022-10-23T14:48:00.913Z,79.50
2022-10-23T14:50:35.368Z,79.61
2022-10-23T14:53:07.298Z,79.89
2022-10-23T14:55:39.631Z,80.00
2022-10-23T14:58:11.550Z,79.89
2022-10-23T15:00:43.400Z,80.34
2022-10-23T15:03:15.795Z,80.53
2022-10-23T15:05:47.753Z,80.57
2022-10-23T15:08:20.677Z,80.74
2022-10-23T15:10:52.645Z,80.95
2022-10-23T15:13:24.565Z,81.02
2022-10-23T15:16:10.697Z,82.10
2022-10-23T15:18:42.811Z,81.47
2022-10-23T15:21:15.477Z,81.59
2022-10-23T15:23:48.527Z,82.06
2022-10-23T15:26:23.091Z,82.18
2022-10-23T15:28:59.646Z,82.33
2022-10-23T15:31:43.515Z,83.23
2022-10-23T15:34:21.774Z,82.97
2022-10-23T15:36:55.281Z,83.01
2022-10-23T15:39:29.422Z,83.42
2022-10-23T15:42:04.198Z,83.78
2022-10-23T15:44:36.471Z,83.52
2022-10-23T15:47:08.351Z,83.76
2022-10-23T15:49:40.324Z,83.90
2022-10-23T15:52:12.218Z,83.97
2022-10-23T15:54:44.251Z,84.29
2022-10-23T15:57:16.289Z,84.21
2022-10-23T15:59:48.200Z,84.42
2022-10-23T16:02:20.915Z,84.65
2022-10-23T16:04:52.999Z,84.74
2022-10-23T16:07:24.867Z,84.94
2022-10-23T16:09:57.149Z,84.95
2022-10-23T16:12:29.101Z,85.02
2022-10-23T16:15:01.015Z,85.19
2022-10-23T16:17:32.830Z,85.24
2022-10-23T16:20:05.150Z,85.24
2022-10-23T16:22:40.125Z,85.41
2022-10-23T16:25:14.994Z,85.43
2022-10-23T16:27:47.357Z,85.49
2022-10-23T16:30:21.205Z,85.79
2022-10-23T16:32:54.807Z,85.80
2022-10-23T16:35:26.713Z,85.89
2022-10-23T16:38:10.886Z,86.00
2022-10-23T16:40:42.845Z,85.96
2022-10-23T16:43:35.096Z,85.88
2022-10-23T16:46:35.406Z,85.97
2022-10-23T16:49:08.806Z,85.98
2022-10-23T16:51:40.587Z,86.09
2022-10-23T16:54:14.487Z,86.14
2022-10-23T16:56:47.299Z,86.00
2022-10-23T16:59:19.248Z,86.28
2022-10-23T17:01:51.292Z,86.25
2022-10-23T17:04:23.301Z,86.29
2022-10-23T17:06:55.301Z,86.28
2022-10-23T17:09:31.179Z,86.39
2022-10-23T17:12:03.290Z,86.36
2022-10-23T17:14:35.533Z,86.63
2022-10-23T17:17:09.735Z,86.63
2022-10-23T17:19:46.354Z,86.88
2022-10-23T17:22:18.730Z,87.02
2022-10-23T17:24:53.900Z,87.10
2022-10-23T17:27:26.303Z,87.20
2022-10-23T17:29:58.192Z,87.18
2022-10-23T17:32:30.120Z,87.45
2022-10-23T17:35:05.092Z,87.57
2022-10-23T17:37:37.015Z,87.63
2022-10-23T17:40:09.338Z,87.62
2022-10-23T17:42:41.757Z,87.76
2022-10-23T17:45:13.705Z,87.89
2022-10-23T17:47:45.574Z,88.07
2022-10-23T17:50:17.692Z,88.45
2022-10-23T17:52:49.643Z,88.43
2022-10-23T17:55:21.887Z,88.42
2022-10-23T17:57:53.755Z,88.49
2022-10-23T18:00:25.746Z,88.48
2022-10-23T18:02:57.557Z,88.63
2022-10-23T18:05:31.958Z,88.54
2022-10-23T18:08:03.806Z,88.41
2022-10-23T18:10:36.149Z,88.47
2022-10-23T18:13:07.953Z,88.47
2022-10-23T18:15:39.912Z,88.74
2022-10-23T18:18:11.901Z,88.37
2022-10-23T18:20:44.827Z,88.54
2022-10-23T18:23:16.683Z,88.42
2022-10-23T18:25:48.710Z,88.53
2022-10-23T18:28:20.836Z,88.29
2022-10-23T18:30:56.084Z,88.41
2022-10-23T18:33:29.092Z,88.43
2022-10-23T18:36:00.917Z,88.19
2022-10-23T18:38:32.816Z,88.18
2022-10-23T18:41:04.694Z,88.29
2022-10-23T18:43:43.752Z,88.08
2022-10-23T18:46:16.403Z,88.24
2022-10-23T18:48:50.743Z,88.30
2022-10-23T18:51:28.571Z,88.67
2022-10-23T18:54:07.527Z,88.77
2022-10-23T18:56:39.838Z,88.67
2022-10-23T18:59:14.550Z,88.93
2022-10-23T19:01:46.530Z,88.80
2022-10-23T19:04:19.035Z,88.73
2022-10-23T19:06:51.047Z,88.83
2022-10-23T19:09:23.010Z,88.88
2022-10-23T19:11:54.943Z,88.83
2022-10-23T19:14:28.692Z,88.96
2022-10-23T19:17:05.324Z,89.12
2022-10-23T19:19:43.436Z,89.05
2022-10-23T19:22:16.086Z,88.91
2022-10-23T19:24:57.081Z,89.05
2022-10-23T19:27:30.019Z,88.94
2022-10-23T19:30:03.440Z,88.96
2022-10-23T19:32:35.395Z,89.06
2022-10-23T19:35:08.394Z,89.08
2022-10-23T19:37:40.614Z,89.02
2022-10-23T19:40:14.164Z,89.07
2022-10-23T19:42:46.088Z,89.04
2022-10-23T19:45:18.103Z,88.87
2022-10-23T19:47:50.036Z,89.02
2022-10-23T19:50:22.230Z,88.91
2022-10-23T19:52:54.100Z,89.11
2022-10-23T19:55:26.084Z,89.09
2022-10-23T19:57:57.961Z,89.01
2022-10-23T20:00:29.842Z,89.14
2022-10-23T20:03:01.763Z,88.89
2022-10-23T20:05:33.608Z,89.10
2022-10-23T20:08:05.574Z,89.10
2022-10-23T20:10:46.534Z,89.18
2022-10-23T20:13:20.231Z,89.04
2022-10-23T20:15:52.499Z,88.93
2022-10-23T20:18:25.932Z,89.11
2022-10-23T20:21:01.425Z,89.19
2022-10-23T20:23:33.302Z,89.02
2022-10-23T20:26:10.448Z,89.19
2022-10-23T20:28:46.831Z,89.11
2022-10-23T20:31:20.085Z,89.06
2022-10-23T20:33:52.433Z,89.15
2022-10-23T20:36:26.460Z,89.12
2022-10-23T20:39:01.103Z,89.11
2022-10-23T20:41:36.822Z,89.45
2022-10-23T20:44:11.369Z,89.36
2022-10-23T20:46:43.911Z,89.86
2022-10-23T20:49:16.194Z,90.18
2022-10-23T20:51:55.156Z,91.92
2022-10-23T20:54:28.842Z,91.49
2022-10-23T20:57:01.070Z,91.95
2022-10-23T20:59:34.123Z,92.98
2022-10-23T21:02:06.320Z,93.57
2022-10-23T21:04:38.372Z,93.85
2022-10-23T21:07:11.414Z,94.00
2022-10-23T21:09:43.753Z,94.34
2022-10-23T21:12:15.728Z,94.37
2022-10-23T21:14:47.601Z,94.66
2022-10-23T21:17:19.458Z,94.83
2022-10-23T21:19:51.459Z,95.17
2022-10-23T21:22:23.273Z,95.41
2022-10-23T21:24:56.983Z,95.37
2022-10-23T21:27:29.039Z,95.51
2022-10-23T21:30:00.972Z,95.60
2022-10-23T21:32:33.071Z,95.91
2022-10-23T21:35:05.336Z,96.36
2022-10-23T21:37:37.194Z,96.48
2022-10-23T21:40:09.779Z,96.56
2022-10-23T21:42:41.631Z,97.04
2022-10-23T21:45:13.560Z,97.72
2022-10-23T21:47:45.665Z,98.07
2022-10-23T21:50:17.788Z,98.28
2022-10-23T21:52:52.602Z,98.43
2022-10-23T21:55:28.587Z,98.06
2022-10-23T21:58:00.465Z,97.79
2022-10-23T22:00:32.345Z,97.71
2022-10-23T22:03:04.212Z,97.63
2022-10-23T22:05:36.079Z,96.84
2022-10-23T22:08:08.076Z,96.66
2022-10-23T22:10:39.952Z,96.25
2022-10-23T22:13:11.755Z,95.91
2022-10-23T22:18:16.327Z,94.94
2022-10-23T22:20:48.182Z,94.27
2022-10-23T22:23:20.019Z,93.98
2022-10-23T22:25:51.904Z,93.76
2022-10-23T22:28:23.910Z,93.46
2022-10-23T22:30:55.878Z,93.46
2022-10-23T22:33:29.048Z,93.09
2022-10-23T22:36:02.247Z,92.71
2022-10-23T22:38:34.152Z,92.58
2022-10-23T22:41:07.186Z,92.37
2022-10-23T22:43:39.293Z,92.43
2022-10-23T22:46:13.174Z,92.16
2022-10-23T22:48:45.628Z,92.14
2022-10-23T22:51:19.322Z,91.85
2022-10-23T22:53:51.142Z,91.96
2022-10-23T22:56:25.757Z,92.06
2022-10-23T22:58:57.882Z,92.17
2022-10-23T23:01:33.167Z,92.18
2022-10-23T23:04:19.483Z,92.43
2022-10-23T23:06:57.008Z,92.66
2022-10-23T23:09:29.135Z,92.88
2022-10-23T23:12:00.962Z,92.91
2022-10-23T23:14:32.966Z,93.15
2022-10-23T23:17:05.923Z,93.41
2022-10-23T23:19:38.002Z,93.70
2022-10-23T23:22:09.852Z,93.93
2022-10-23T23:24:41.839Z,94.13
2022-10-23T23:27:13.682Z,94.69
2022-10-23T23:29:45.503Z,94.64
2022-10-23T23:32:17.382Z,95.04
2022-10-23T23:34:49.297Z,95.34
2022-10-23T23:37:21.479Z,95.54
2022-10-23T23:39:53.362Z,95.71
2022-10-23T23:42:25.247Z,95.98
2022-10-23T23:45:02.922Z,96.35
2022-10-23T23:47:45.730Z,96.73
2022-10-23T23:50:17.870Z,96.87
2022-10-23T23:52:49.866Z,97.05
2022-10-23T23:55:21.814Z,97.28
2022-10-23T23:57:53.697Z,97.37
